Time;durP1;ratioP1;P1;durP2;ratioP2;P2;SDS_P1;SDS_P2;PMS_P1;PMS_P2;Temp;Humidity;BMP_temperature;BMP_pressure;BME280_temperature;BME280_humidity;BME280_pressure;Samples;Min_cycle;Max_cycle;Signal;HPM_P1;HPM_P2
2023/12/28 00:01:08;;;;;;;65.90;27.80;;;;;;;-146.82;100.00;71671.09;5038994;28;20031;-82
2023/12/28 00:03:34;;;;;;;55.90;26.63;;;;;;;-146.82;100.00;71671.09;5021921;28;20095;-79
2023/12/28 00:05:59;;;;;;;60.53;28.05;;;;;;;-146.82;100.00;71671.09;5038146;28;20031;-80
2023/12/28 00:08:25;;;;;;;62.30;26.70;;;;;;;-146.82;100.00;71671.09;5036389;28;20017;-81
2023/12/28 00:10:50;;;;;;;59.10;27.27;;;;;;;-146.82;100.00;71671.09;5037815;28;20060;-81
2023/12/28 00:13:16;;;;;;;55.17;26.83;;;;;;;-146.82;100.00;71671.09;5036419;28;20067;-81
2023/12/28 00:15:41;;;;;;;62.05;27.20;;;;;;;-146.82;100.00;71671.09;5019760;28;20032;-82
2023/12/28 00:18:07;;;;;;;64.72;27.48;;;;;;;-146.82;100.00;71671.09;5037045;28;20367;-80
2023/12/28 00:20:32;;;;;;;57.28;24.75;;;;;;;-146.82;100.00;71671.09;5037413;28;20029;-81
2023/12/28 00:22:59;;;;;;;52.97;24.73;;;;;;;-146.82;100.00;71671.09;5036592;28;20463;-80
2023/12/28 00:25:24;;;;;;;58.63;26.92;;;;;;;-146.82;100.00;71671.09;5036409;28;20049;-80
2023/12/28 00:27:50;;;;;;;57.95;25.88;;;;;;;-146.82;100.00;71671.09;5036715;28;20030;-82
2023/12/28 00:30:17;;;;;;;54.50;25.10;;;;;;;-146.82;100.00;71671.09;5036227;28;20502;-81
2023/12/28 00:32:45;;;;;;;59.97;26.38;;;;;;;-146.82;100.00;71671.09;5036445;28;20035;-81
2023/12/28 00:35:12;;;;;;;53.08;27.45;;;;;;;-146.82;100.00;71671.09;5036554;28;20584;-81
2023/12/28 00:37:37;;;;;;;55.58;26.77;;;;;;;-146.82;100.00;71671.09;5036279;28;20368;-81
2023/12/28 00:40:03;;;;;;;58.55;26.55;;;;;;;-146.82;100.00;71671.09;5036315;28;20561;-80
2023/12/28 00:42:28;;;;;;;61.58;26.98;;;;;;;-146.82;100.00;71671.09;5036236;28;20034;-80
2023/12/28 00:44:54;;;;;;;55.13;26.65;;;;;;;-146.82;100.00;71671.09;5036202;28;20033;-81
2023/12/28 00:47:19;;;;;;;53.55;25.08;;;;;;;-146.82;100.00;71671.09;5036473;28;20075;-81
2023/12/28 00:49:44;;;;;;;54.35;24.85;;;;;;;-146.82;100.00;71671.09;5034879;28;20060;-80
2023/12/28 00:52:10;;;;;;;59.47;26.23;;;;;;;-146.82;100.00;71671.09;5035013;28;20060;-80
2023/12/28 00:54:38;;;;;;;51.20;24.30;;;;;;;-146.82;100.00;71671.09;5036513;28;20052;-81
2023/12/28 00:57:04;;;;;;;57.47;25.00;;;;;;;-146.82;100.00;71671.09;5018387;28;20029;-80
2023/12/28 00:59:30;;;;;;;50.13;25.70;;;;;;;-146.82;100.00;71671.09;5034807;28;20033;-79
2023/12/28 01:01:56;;;;;;;56.72;25.83;;;;;;;-146.82;100.00;71671.09;5035939;28;20416;-81
2023/12/28 01:04:24;;;;;;;62.45;27.00;;;;;;;-146.82;100.00;71671.09;5043729;28;20040;-81
2023/12/28 01:06:50;;;;;;;51.78;23.92;;;;;;;-146.82;100.00;71671.09;5057114;28;20029;-80
2023/12/28 01:09:15;;;;;;;55.20;25.80;;;;;;;-146.82;100.00;71671.09;5057718;28;20040;-81
2023/12/28 01:11:41;;;;;;;56.30;24.73;;;;;;;-146.82;100.00;71671.09;5053746;28;20053;-82
2023/12/28 01:14:07;;;;;;;54.30;25.45;;;;;;;-146.82;100.00;71671.09;5039117;28;20124;-79
2023/12/28 01:16:32;;;;;;;51.35;24.67;;;;;;;-146.82;100.00;71671.09;5041946;28;20489;-79
2023/12/28 01:18:57;;;;;;;51.60;23.85;;;;;;;-146.82;100.00;71671.09;5024053;28;20025;-79
2023/12/28 01:21:24;;;;;;;59.47;23.63;;;;;;;-146.82;100.00;71671.09;5039377;28;20028;-80
2023/12/28 01:23:50;;;;;;;51.85;24.83;;;;;;;-146.82;100.00;71671.09;5038234;28;20131;-80
2023/12/28 01:26:17;;;;;;;45.55;24.33;;;;;;;-146.82;100.00;71671.09;5036120;28;20029;-80
2023/12/28 01:28:42;;;;;;;54.17;24.05;;;;;;;-146.82;100.00;71671.09;5035436;28;20037;-80
2023/12/28 01:31:08;;;;;;;54.78;25.90;;;;;;;-146.82;100.00;71671.09;5035573;28;20032;-80
2023/12/28 01:33:33;;;;;;;52.97;25.23;;;;;;;-146.82;100.00;71671.09;5035176;28;20025;-81
2023/12/28 01:35:59;;;;;;;52.83;24.02;;;;;;;-146.82;100.00;71671.09;5033988;28;20061;-80
2023/12/28 01:38:24;;;;;;;54.65;24.92;;;;;;;-146.82;100.00;71671.09;5034360;28;20116;-80
2023/12/28 01:40:50;;;;;;;56.58;25.77;;;;;;;-146.82;100.00;71671.09;5035121;28;20461;-80
2023/12/28 01:43:15;;;;;;;49.00;25.67;;;;;;;-146.82;100.00;71671.09;5035313;28;20033;-81
2023/12/28 01:45:41;;;;;;;55.97;25.90;;;;;;;-146.82;100.00;71671.09;5036425;28;20025;-81
2023/12/28 01:48:06;;;;;;;58.13;27.35;;;;;;;-146.82;100.00;71671.09;5035909;28;20021;-81
2023/12/28 01:50:32;;;;;;;56.08;26.90;;;;;;;-146.82;100.00;71671.09;5034777;28;20497;-80
2023/12/28 01:52:59;;;;;;;58.80;26.17;;;;;;;-146.82;100.00;71671.09;5034134;28;20029;-80
2023/12/28 01:55:25;;;;;;;63.22;28.15;;;;;;;-146.82;100.00;71671.09;5033704;28;20087;-80
2023/12/28 01:57:50;;;;;;;67.70;29.70;;;;;;;-146.82;100.00;71671.09;5035209;28;20037;-80
2023/12/28 02:00:16;;;;;;;52.67;27.05;;;;;;;-146.82;100.00;71671.09;5034487;28;20028;-79
2023/12/28 02:02:42;;;;;;;54.40;28.20;;;;;;;-146.82;100.00;71671.09;5034548;28;20379;-79
2023/12/28 02:05:08;;;;;;;61.35;26.70;;;;;;;-146.82;100.00;71671.09;5034283;28;20032;-80
2023/12/28 02:07:36;;;;;;;59.75;26.98;;;;;;;-146.82;100.00;71671.09;5034896;28;20477;-80
2023/12/28 02:10:02;;;;;;;50.85;26.50;;;;;;;-146.82;100.00;71671.09;5034268;28;20091;-80
2023/12/28 02:12:27;;;;;;;58.30;28.17;;;;;;;-146.82;100.00;71671.09;5017049;28;20017;-79
2023/12/28 02:14:53;;;;;;;54.03;27.80;;;;;;;-146.82;100.00;71671.09;5033006;28;20331;-81
2023/12/28 02:17:37;;;;;;;53.83;26.35;;;;;;;-146.82;100.00;71671.09;5033296;28;20095;-80
2023/12/28 02:20:06;;;;;;;57.53;26.38;;;;;;;-146.82;100.00;71671.09;5036501;28;20025;-80
2023/12/28 02:22:32;;;;;;;51.97;26.48;;;;;;;-146.82;100.00;71671.09;5036446;28;20033;-80
2023/12/28 02:25:13;;;;;;;57.08;28.15;;;;;;;-146.82;100.00;71671.09;5036529;28;20049;-79
2023/12/28 02:27:41;;;;;;;53.78;26.40;;;;;;;-146.82;100.00;71671.09;5036764;28;20031;-79
2023/12/28 02:30:08;;;;;;;52.35;26.60;;;;;;;-146.82;100.00;71671.09;5016816;28;20021;-80
2023/12/28 02:32:47;;;;;;;56.47;26.08;;;;;;;-146.82;100.00;71671.09;5016429;28;20478;-79
2023/12/28 02:35:17;;;;;;;53.22;27.13;;;;;;;-146.82;100.00;71671.09;5034219;28;20026;-79
2023/12/28 02:37:44;;;;;;;47.92;23.73;;;;;;;-146.82;100.00;71671.09;5032801;28;20467;-80
2023/12/28 02:40:11;;;;;;;55.50;24.02;;;;;;;-146.82;100.00;71671.09;5032792;28;20494;-80
2023/12/28 02:42:36;;;;;;;49.25;24.40;;;;;;;-146.82;100.00;71671.09;5032788;28;20026;-79
2023/12/28 02:45:02;;;;;;;54.17;24.52;;;;;;;-146.82;100.00;71671.09;5032994;28;20037;-80
2023/12/28 02:47:27;;;;;;;46.80;22.60;;;;;;;-146.82;100.00;71671.09;5034371;28;20140;-79
2023/12/28 02:49:53;;;;;;;44.78;22.40;;;;;;;-146.82;100.00;71671.09;5032625;28;20018;-81
2023/12/28 02:52:18;;;;;;;44.38;21.15;;;;;;;-146.82;100.00;71671.09;5033405;28;20379;-80
2023/12/28 02:54:43;;;;;;;56.50;26.15;;;;;;;-146.82;100.00;71671.09;5034936;28;20032;-80
2023/12/28 02:57:09;;;;;;;58.15;27.67;;;;;;;-146.82;100.00;71671.09;5035518;28;20068;-80
2023/12/28 02:59:34;;;;;;;56.67;26.17;;;;;;;-146.82;100.00;71671.09;5033476;28;20014;-80
2023/12/28 03:02:00;;;;;;;54.42;26.75;;;;;;;-146.82;100.00;71671.09;5034588;28;20024;-80
2023/12/28 03:04:25;;;;;;;48.42;25.00;;;;;;;-146.82;100.00;71671.09;5016612;28;20025;-80
2023/12/28 03:06:51;;;;;;;46.90;21.50;;;;;;;-146.82;100.00;71671.09;5034385;28;20429;-80
2023/12/28 03:09:16;;;;;;;49.58;23.40;;;;;;;-146.82;100.00;71671.09;5034178;28;20017;-79
2023/12/28 03:11:41;;;;;;;43.67;19.58;;;;;;;-146.82;100.00;71671.09;5033825;28;20489;-81
2023/12/28 03:14:07;;;;;;;44.55;19.35;;;;;;;-146.82;100.00;71671.09;5032682;28;20021;-80
2023/12/28 03:16:32;;;;;;;36.40;18.38;;;;;;;-146.82;100.00;71671.09;5032897;28;20071;-79
2023/12/28 03:18:58;;;;;;;40.47;19.95;;;;;;;-146.82;100.00;71671.09;5034631;28;20017;-81
2023/12/28 03:21:23;;;;;;;33.78;18.15;;;;;;;-146.82;100.00;71671.09;5016560;28;20038;-79
2023/12/28 03:23:48;;;;;;;37.65;18.02;;;;;;;-146.82;100.00;71671.09;5033295;28;20390;-79
2023/12/28 03:26:14;;;;;;;32.70;16.10;;;;;;;-146.82;100.00;71671.09;5034459;28;20385;-80
2023/12/28 03:28:40;;;;;;;22.98;13.60;;;;;;;-146.82;100.00;71671.09;5039200;28;20092;-80
2023/12/28 03:31:05;;;;;;;34.50;17.92;;;;;;;-146.82;100.00;71671.09;5043642;28;20030;-80
2023/12/28 03:33:30;;;;;;;26.45;11.88;;;;;;;-146.82;100.00;71671.09;5038638;28;20374;-79
2023/12/28 03:35:56;;;;;;;17.27;10.02;;;;;;;-146.82;100.00;71671.09;5021256;28;20386;-80
2023/12/28 03:38:22;;;;;;;16.65;8.73;;;;;;;-146.82;100.00;71671.09;5042206;28;20029;-80
2023/12/28 03:40:49;;;;;;;12.63;7.38;;;;;;;-146.82;100.00;71671.09;5048817;28;20045;-81
2023/12/28 03:43:15;;;;;;;11.30;6.93;;;;;;;-146.82;100.00;71671.09;5050392;28;20029;-80
2023/12/28 03:45:40;;;;;;;13.88;7.20;;;;;;;-146.82;100.00;71671.09;5047594;28;20434;-79
2023/12/28 03:48:06;;;;;;;13.13;7.65;;;;;;;-146.82;100.00;71671.09;5026220;28;20025;-80
2023/12/28 03:50:31;;;;;;;13.20;6.78;;;;;;;-146.82;100.00;71671.09;5037383;28;20101;-79
2023/12/28 03:52:58;;;;;;;19.83;9.57;;;;;;;-146.82;100.00;71671.09;5037151;28;20025;-80
2023/12/28 03:55:24;;;;;;;21.35;11.23;;;;;;;-146.82;100.00;71671.09;5036747;28;20479;-79
2023/12/28 03:57:51;;;;;;;23.45;12.60;;;;;;;-146.82;100.00;71671.09;5035570;28;20078;-79
2023/12/28 04:00:16;;;;;;;18.42;9.27;;;;;;;-146.82;100.00;71671.09;5037321;28;20041;-80
2023/12/28 04:02:42;;;;;;;14.15;7.95;;;;;;;-146.82;100.00;71671.09;5035986;28;20061;-80
2023/12/28 04:05:07;;;;;;;13.98;7.75;;;;;;;-146.82;100.00;71671.09;5037175;28;20441;-79
2023/12/28 04:07:33;;;;;;;11.30;6.63;;;;;;;-146.82;100.00;71671.09;5037736;28;20037;-79
2023/12/28 04:09:58;;;;;;;14.73;5.85;;;;;;;-146.82;100.00;71671.09;5037446;28;20031;-80
2023/12/28 04:12:24;;;;;;;9.32;5.45;;;;;;;-146.82;100.00;71671.09;5036866;28;20108;-79
2023/12/28 04:14:49;;;;;;;13.00;5.43;;;;;;;-146.82;100.00;71671.09;5018878;28;20112;-81
2023/12/28 04:17:14;;;;;;;8.82;4.90;;;;;;;-146.82;100.00;71671.09;5037048;28;20026;-80
2023/12/28 04:19:40;;;;;;;5.82;3.67;;;;;;;-146.82;100.00;71671.09;5037205;28;20021;-80
2023/12/28 04:22:05;;;;;;;4.55;3.63;;;;;;;-146.82;100.00;71671.09;5018757;28;20025;-81
2023/12/28 04:24:31;;;;;;;5.85;3.28;;;;;;;-146.82;100.00;71671.09;5036069;28;20491;-80
2023/12/28 04:26:56;;;;;;;5.82;3.58;;;;;;;-146.82;100.00;71671.09;5035981;28;20060;-80
2023/12/28 04:29:22;;;;;;;5.75;4.50;;;;;;;-146.82;100.00;71671.09;5034309;28;20486;-80
2023/12/28 04:31:47;;;;;;;8.40;3.50;;;;;;;-146.82;100.00;71671.09;5035369;28;20029;-81
2023/12/28 04:34:12;;;;;;;7.22;3.70;;;;;;;-146.82;100.00;71671.09;5035181;28;20025;-80
2023/12/28 04:36:42;;;;;;;10.13;6.30;;;;;;;-146.82;100.00;71671.09;5033813;28;20017;-80
2023/12/28 04:39:08;;;;;;;8.25;5.03;;;;;;;-146.82;100.00;71671.09;5034492;28;20053;-80
2023/12/28 04:41:33;;;;;;;8.93;5.57;;;;;;;-146.82;100.00;71671.09;5035344;28;20057;-79
2023/12/28 04:43:59;;;;;;;7.10;4.32;;;;;;;-146.82;100.00;71671.09;5035951;28;20108;-80
2023/12/28 04:46:24;;;;;;;8.63;4.63;;;;;;;-146.82;100.00;71671.09;5036181;28;20025;-79
2023/12/28 04:48:50;;;;;;;8.65;5.78;;;;;;;-146.82;100.00;71671.09;5038429;28;20043;-79
2023/12/28 04:51:15;;;;;;;8.20;4.88;;;;;;;-146.82;100.00;71671.09;5042146;28;20022;-79
2023/12/28 04:53:40;;;;;;;8.75;5.63;;;;;;;-146.82;100.00;71671.09;5040857;28;20383;-80
2023/12/28 04:56:06;;;;;;;9.93;7.07;;;;;;;-146.82;100.00;71671.09;5040842;28;20032;-80
2023/12/28 04:58:31;;;;;;;12.25;8.20;;;;;;;-146.82;100.00;71671.09;5037123;28;20371;-81
2023/12/28 05:00:57;;;;;;;11.73;7.53;;;;;;;-146.82;100.00;71671.09;5036425;28;20013;-80
2023/12/28 05:03:22;;;;;;;13.80;6.85;;;;;;;-146.82;100.00;71671.09;5035488;28;20406;-80
2023/12/28 05:05:48;;;;;;;12.70;7.47;;;;;;;-146.82;100.00;71671.09;5036086;28;20104;-81
2023/12/28 05:08:13;;;;;;;14.45;7.57;;;;;;;-146.82;100.00;71671.09;5035257;28;20078;-81
2023/12/28 05:10:38;;;;;;;13.88;6.78;;;;;;;-146.82;100.00;71671.09;5034914;28;20112;-80
2023/12/28 05:13:04;;;;;;;10.30;6.90;;;;;;;-146.82;100.00;71671.09;5035227;28;20025;-80
2023/12/28 05:15:29;;;;;;;20.13;9.25;;;;;;;-146.82;100.00;71671.09;5033956;28;20401;-81
2023/12/28 05:17:55;;;;;;;20.48;11.13;;;;;;;-146.82;100.00;71671.09;5026099;28;20021;-79
2023/12/28 05:20:20;;;;;;;17.40;8.43;;;;;;;-146.82;100.00;71671.09;5050338;28;20017;-80
2023/12/28 05:22:46;;;;;;;16.63;9.73;;;;;;;-146.82;100.00;71671.09;5051081;28;20045;-81
2023/12/28 05:25:12;;;;;;;19.63;10.63;;;;;;;-146.82;100.00;71671.09;4977779;28;2114999;-80
2023/12/28 05:27:37;;;;;;;17.73;10.13;;;;;;;-146.82;100.00;71671.09;5041240;28;20030;-79
2023/12/28 05:30:04;;;;;;;21.15;11.43;;;;;;;-146.82;100.00;71671.09;5040400;28;20137;-80
2023/12/28 05:32:29;;;;;;;16.83;9.43;;;;;;;-146.82;100.00;71671.09;5042719;28;20113;-79
2023/12/28 05:34:55;;;;;;;15.45;7.85;;;;;;;-146.82;100.00;71671.09;5036483;28;20103;-80
2023/12/28 05:37:20;;;;;;;13.75;9.32;;;;;;;-146.82;100.00;71671.09;5034789;28;20112;-80
2023/12/28 05:39:46;;;;;;;14.98;8.45;;;;;;;-146.82;100.00;71671.09;5017918;28;20467;-79
2023/12/28 05:42:11;;;;;;;12.55;8.57;;;;;;;-146.82;100.00;71671.09;5036565;28;20509;-81
2023/12/28 05:44:37;;;;;;;12.60;7.07;;;;;;;-146.82;100.00;71671.09;5035961;28;20466;-79
2023/12/28 05:47:03;;;;;;;8.88;5.80;;;;;;;-146.82;100.00;71671.09;5033971;28;20025;-81
2023/12/28 05:49:30;;;;;;;10.98;6.15;;;;;;;-146.82;100.00;71671.09;5035306;28;20036;-81
2023/12/28 05:51:55;;;;;;;11.73;5.90;;;;;;;-146.82;100.00;71671.09;5035053;28;20071;-81
2023/12/28 05:54:21;;;;;;;14.60;5.75;;;;;;;-146.82;100.00;71671.09;5035125;28;20029;-78
2023/12/28 05:56:46;;;;;;;13.95;6.40;;;;;;;-146.82;100.00;71671.09;5035508;28;20021;-82
2023/12/28 05:59:12;;;;;;;14.95;8.60;;;;;;;-146.82;100.00;71671.09;5035433;28;20059;-81
2023/12/28 06:01:44;;;;;;;12.15;6.68;;;;;;;-146.82;100.00;71671.09;5035129;28;20168;-82
2023/12/28 06:04:10;;;;;;;9.88;5.55;;;;;;;-146.82;100.00;71671.09;5034816;28;20108;-80
2023/12/28 06:06:36;;;;;;;10.18;6.00;;;;;;;-146.82;100.00;71671.09;5034399;28;20103;-80
2023/12/28 06:09:03;;;;;;;11.00;5.57;;;;;;;-146.82;100.00;71671.09;5034300;28;20497;-81
2023/12/28 06:11:28;;;;;;;7.80;5.18;;;;;;;-146.82;100.00;71671.09;5033067;28;20533;-81
2023/12/28 06:13:54;;;;;;;6.90;3.85;;;;;;;-146.82;100.00;71671.09;5034413;28;20025;-79
2023/12/28 06:16:19;;;;;;;7.85;3.45;;;;;;;-146.82;100.00;71671.09;5033490;28;20083;-80
2023/12/28 06:18:44;;;;;;;6.07;3.42;;;;;;;-146.82;100.00;71671.09;5034493;28;20071;-81
2023/12/28 06:21:10;;;;;;;6.93;3.47;;;;;;;-146.82;100.00;71671.09;5034415;28;20033;-82
2023/12/28 06:23:35;;;;;;;6.18;3.17;;;;;;;-146.82;100.00;71671.09;5034792;28;20022;-80
2023/12/28 06:26:06;;;;;;;4.68;2.88;;;;;;;-146.82;100.00;71671.09;5035069;28;20042;-80
2023/12/28 06:28:32;;;;;;;7.90;2.97;;;;;;;-146.82;100.00;71671.09;5034871;28;20482;-80
2023/12/28 06:31:00;;;;;;;5.70;2.92;;;;;;;-146.82;100.00;71671.09;5034755;28;20045;-79
2023/12/28 06:33:27;;;;;;;4.85;2.72;;;;;;;-146.82;100.00;71671.09;5033694;28;20036;-79
2023/12/28 06:35:53;;;;;;;5.70;2.70;;;;;;;-146.82;100.00;71671.09;5034037;28;20040;-80
2023/12/28 06:38:18;;;;;;;5.43;2.65;;;;;;;-146.82;100.00;71671.09;5034537;28;20029;-80
2023/12/28 06:40:43;;;;;;;3.63;2.40;;;;;;;-146.82;100.00;71671.09;5034203;28;20033;-81
2023/12/28 06:43:09;;;;;;;5.20;2.42;;;;;;;-146.82;100.00;71671.09;5033217;28;20112;-81
2023/12/28 06:45:34;;;;;;;7.32;2.78;;;;;;;-146.82;100.00;71671.09;5033936;28;20040;-80
2023/12/28 06:48:00;;;;;;;5.78;2.65;;;;;;;-146.82;100.00;71671.09;5032821;28;20035;-81
2023/12/28 06:50:25;;;;;;;8.82;3.35;;;;;;;-146.82;100.00;71671.09;5015940;28;20026;-81
2023/12/28 06:52:50;;;;;;;10.75;3.70;;;;;;;-146.82;100.00;71671.09;5034006;28;20052;-81
2023/12/28 06:55:16;;;;;;;4.30;2.40;;;;;;;-146.82;100.00;71671.09;5032668;28;20026;-82
2023/12/28 06:57:41;;;;;;;4.68;2.40;;;;;;;-146.82;100.00;71671.09;5033942;28;20113;-81
2023/12/28 07:00:07;;;;;;;4.18;2.22;;;;;;;-146.82;100.00;71671.09;5032346;28;20070;-80
2023/12/28 07:02:33;;;;;;;5.22;2.08;;;;;;;-146.82;100.00;71671.09;5032206;28;20057;-80
2023/12/28 07:04:58;;;;;;;5.80;2.30;;;;;;;-146.82;100.00;71671.09;5032096;28;20033;-80
2023/12/28 07:07:23;;;;;;;3.45;2.03;;;;;;;-146.82;100.00;71671.09;5033627;28;20139;-81
2023/12/28 07:09:49;;;;;;;2.30;1.75;;;;;;;-146.82;100.00;71671.09;5032620;28;20540;-81
2023/12/28 07:12:15;;;;;;;4.78;2.13;;;;;;;-146.82;100.00;71671.09;5033655;28;20469;-80
2023/12/28 07:14:40;;;;;;;6.53;1.90;;;;;;;-146.82;100.00;71671.09;5034200;28;20168;-81
2023/12/28 07:17:06;;;;;;;2.58;1.90;;;;;;;-146.82;100.00;71671.09;5032263;28;20034;-80
2023/12/28 07:19:31;;;;;;;4.40;2.58;;;;;;;-146.82;100.00;71671.09;5032230;28;20026;-81
2023/12/28 07:21:57;;;;;;;2.53;2.20;;;;;;;-146.82;100.00;71671.09;5033508;28;20063;-81
2023/12/28 07:24:23;;;;;;;4.10;2.33;;;;;;;-146.82;100.00;71671.09;5033414;28;20128;-81
2023/12/28 07:26:48;;;;;;;2.88;2.20;;;;;;;-146.82;100.00;71671.09;5033292;28;20433;-82
2023/12/28 07:29:14;;;;;;;3.90;1.77;;;;;;;-146.82;100.00;71671.09;5032022;28;20038;-81
2023/12/28 07:31:39;;;;;;;5.85;2.08;;;;;;;-146.82;100.00;71671.09;5033427;28;20029;-80
2023/12/28 07:34:05;;;;;;;5.40;2.08;;;;;;;-146.82;100.00;71671.09;5033163;28;20029;-82
2023/12/28 07:36:31;;;;;;;2.50;2.00;;;;;;;-146.82;100.00;71671.09;5033390;28;20030;-80
2023/12/28 07:38:56;;;;;;;3.53;2.30;;;;;;;-146.82;100.00;71671.09;5033203;28;20029;-80
2023/12/28 07:41:21;;;;;;;2.60;1.77;;;;;;;-146.82;100.00;71671.09;5033300;28;20064;-82
2023/12/28 07:43:47;;;;;;;3.47;2.25;;;;;;;-146.82;100.00;71671.09;5032083;28;20029;-79
2023/12/28 07:46:12;;;;;;;4.28;2.30;;;;;;;-146.82;100.00;71671.09;5033154;28;20048;-81
2023/12/28 07:48:38;;;;;;;3.88;2.08;;;;;;;-146.82;100.00;71671.09;5015261;28;20025;-81
2023/12/28 07:51:06;;;;;;;2.08;1.67;;;;;;;-146.82;100.00;71671.09;5031467;28;20029;-81
2023/12/28 07:53:32;;;;;;;3.15;1.77;;;;;;;-146.82;100.00;71671.09;5031664;28;20025;-80
2023/12/28 07:55:58;;;;;;;3.75;2.10;;;;;;;-146.82;100.00;71671.09;5031589;28;20029;-80
2023/12/28 07:58:23;;;;;;;4.15;1.83;;;;;;;-146.82;100.00;71671.09;5032843;28;20033;-81
2023/12/28 08:00:49;;;;;;;3.00;1.83;;;;;;;-146.82;100.00;71671.09;5015218;28;20028;-81
2023/12/28 08:03:15;;;;;;;13.30;3.08;;;;;;;-146.82;100.00;71671.09;5032140;28;20103;-81
2023/12/28 08:05:41;;;;;;;4.03;2.05;;;;;;;-146.82;100.00;71671.09;5033538;28;20087;-80
2023/12/28 08:08:06;;;;;;;3.97;2.00;;;;;;;-146.82;100.00;71671.09;5032072;28;20033;-79
2023/12/28 08:10:32;;;;;;;2.72;1.90;;;;;;;-146.82;100.00;71671.09;5033139;28;20044;-80
2023/12/28 08:12:58;;;;;;;3.75;2.33;;;;;;;-146.82;100.00;71671.09;5033386;28;20025;-80
2023/12/28 08:15:23;;;;;;;3.13;2.00;;;;;;;-146.82;100.00;71671.09;5035654;28;20087;-81
2023/12/28 08:17:49;;;;;;;3.03;2.00;;;;;;;-146.82;100.00;71671.09;5036540;28;20029;-82
2023/12/28 08:20:14;;;;;;;7.03;2.60;;;;;;;-146.82;100.00;71671.09;5036681;28;20017;-81
2023/12/28 08:22:43;;;;;;;4.85;2.70;;;;;;;-146.82;100.00;71671.09;5036766;28;20064;-80
2023/12/28 08:25:09;;;;;;;4.75;2.50;;;;;;;-146.82;100.00;71671.09;5036444;28;20087;-80
2023/12/28 08:27:35;;;;;;;3.15;2.30;;;;;;;-146.82;100.00;71671.09;5036470;28;20033;-79
2023/12/28 08:30:00;;;;;;;5.38;2.25;;;;;;;-146.82;100.00;71671.09;5018606;28;20041;-81
2023/12/28 08:32:25;;;;;;;3.45;2.40;;;;;;;-146.82;100.00;71671.09;5035101;28;20160;-81
2023/12/28 08:34:51;;;;;;;7.20;2.35;;;;;;;-146.82;100.00;71671.09;5036255;28;20366;-81
2023/12/28 08:37:16;;;;;;;6.45;2.42;;;;;;;-146.82;100.00;71671.09;5036480;28;20403;-83
2023/12/28 08:39:42;;;;;;;3.33;1.90;;;;;;;-146.82;100.00;71671.09;5034871;28;20439;-81
2023/12/28 08:42:07;;;;;;;4.25;2.03;;;;;;;-146.82;100.00;71671.09;5035963;28;20032;-80
2023/12/28 08:44:33;;;;;;;4.07;2.20;;;;;;;-146.82;100.00;71671.09;5035841;28;20034;-82
2023/12/28 08:46:59;;;;;;;6.03;2.03;;;;;;;-146.82;100.00;71671.09;5034497;28;20029;-80
2023/12/28 08:49:25;;;;;;;3.28;2.38;;;;;;;-146.82;100.00;71671.09;5035645;28;20112;-81
2023/12/28 08:51:50;;;;;;;4.13;2.42;;;;;;;-146.82;100.00;71671.09;5035524;28;20410;-81
2023/12/28 08:54:16;;;;;;;3.95;2.10;;;;;;;-146.82;100.00;71671.09;5035714;28;20109;-81
2023/12/28 08:56:41;;;;;;;5.25;2.38;;;;;;;-146.82;100.00;71671.09;5035831;28;20045;-80
2023/12/28 08:59:07;;;;;;;7.25;6.13;;;;;;;-146.82;100.00;71671.09;5038876;28;20033;-78
2023/12/28 09:01:32;;;;;;;4.22;2.40;;;;;;;-146.82;100.00;71671.09;5042864;28;20040;-81
2023/12/28 09:03:58;;;;;;;4.90;2.35;;;;;;;-146.82;100.00;71671.09;5043372;28;20423;-81
2023/12/28 09:06:24;;;;;;;5.82;2.88;;;;;;;-146.82;100.00;71671.09;5046282;28;20044;-80
2023/12/28 09:08:51;;;;;;;5.88;2.75;;;;;;;-146.82;100.00;71671.09;5041233;28;20481;-79
2023/12/28 09:11:17;;;;;;;5.63;2.92;;;;;;;-146.82;100.00;71671.09;5038771;28;20382;-79
2023/12/28 09:13:43;;;;;;;2.72;2.10;;;;;;;-146.82;100.00;71671.09;5038511;28;20506;-79
2023/12/28 09:16:11;;;;;;;3.33;2.33;;;;;;;-146.82;100.00;71671.09;5035024;28;20053;-81
2023/12/28 09:18:37;;;;;;;4.43;2.17;;;;;;;-146.82;100.00;71671.09;5035602;28;20056;-81
2023/12/28 09:21:03;;;;;;;3.63;2.63;;;;;;;-146.82;100.00;71671.09;5034225;28;20378;-78
2023/12/28 09:23:29;;;;;;;7.10;2.70;;;;;;;-146.82;100.00;71671.09;5035764;28;20039;-82
2023/12/28 09:25:54;;;;;;;9.05;2.88;;;;;;;-146.82;100.00;71671.09;5034481;28;20041;-83
2023/12/28 09:28:20;;;;;;;4.80;2.40;;;;;;;-146.82;100.00;71671.09;5035367;28;20029;-79
2023/12/28 09:30:45;;;;;;;4.90;2.33;;;;;;;-146.82;100.00;71671.09;5033907;28;20025;-81
2023/12/28 09:33:10;;;;;;;5.60;2.22;;;;;;;-146.82;100.00;71671.09;5035194;28;20037;-82
2023/12/28 09:35:37;;;;;;;10.55;2.90;;;;;;;-146.82;100.00;71671.09;5033743;28;20029;-81
2023/12/28 09:38:02;;;;;;;3.95;2.45;;;;;;;-146.82;100.00;71671.09;5033801;28;20025;-79
2023/12/28 09:40:28;;;;;;;4.30;2.60;;;;;;;-146.82;100.00;71671.09;5035292;28;20467;-80
2023/12/28 09:43:11;;;;;;;5.90;2.38;;;;;;;-146.82;100.00;71671.09;5035199;28;20363;-82
2023/12/28 09:45:37;;;;;;;3.55;2.45;;;;;;;-146.82;100.00;71671.09;5033988;28;20518;-83
2023/12/28 09:48:04;;;;;;;4.45;2.67;;;;;;;-146.82;100.00;71671.09;5035041;28;20037;-80
2023/12/28 09:50:30;;;;;;;6.53;3.05;;;;;;;-146.82;100.00;71671.09;5017594;28;20033;-81
2023/12/28 09:52:55;;;;;;;3.42;2.58;;;;;;;-146.82;100.00;71671.09;5033820;28;20488;-81
2023/12/28 09:55:21;;;;;;;4.38;2.58;;;;;;;-146.82;100.00;71671.09;5034975;28;20026;-81
2023/12/28 09:57:46;;;;;;;7.07;2.67;;;;;;;-146.82;100.00;71671.09;5034636;28;20036;-84
2023/12/28 10:00:12;;;;;;;2.90;2.38;;;;;;;-146.82;100.00;71671.09;5033333;28;20021;-83
2023/12/28 10:02:43;;;;;;;3.53;2.58;;;;;;;-146.82;100.00;71671.09;5034738;28;20032;-81
2023/12/28 10:05:12;;;;;;;3.58;2.65;;;;;;;-146.82;100.00;71671.09;5034510;28;20087;-81
2023/12/28 10:07:45;;;;;;;4.05;2.90;;;;;;;-146.82;100.00;71671.09;5016603;28;20037;-81
2023/12/28 10:10:10;;;;;;;3.13;2.22;;;;;;;-146.82;100.00;71671.09;5034405;28;20047;-80
2023/12/28 10:12:37;;;;;;;5.78;2.92;;;;;;;-146.82;100.00;71671.09;5034353;28;20029;-80
2023/12/28 10:15:04;;;;;;;4.75;2.78;;;;;;;-146.82;100.00;71671.09;5033129;28;20092;-81
2023/12/28 10:17:29;;;;;;;6.10;3.05;;;;;;;-146.82;100.00;71671.09;5034798;28;20075;-81
2023/12/28 10:19:55;;;;;;;5.45;2.60;;;;;;;-146.82;100.00;71671.09;5034699;28;20414;-81
2023/12/28 10:22:21;;;;;;;5.43;2.50;;;;;;;-146.82;100.00;71671.09;5033540;28;20025;-82
2023/12/28 10:24:46;;;;;;;4.13;2.70;;;;;;;-146.82;100.00;71671.09;5035681;28;20048;-83
2023/12/28 10:27:13;;;;;;;4.15;2.78;;;;;;;-146.82;100.00;71671.09;5036372;28;20159;-81
2023/12/28 10:29:39;;;;;;;4.88;3.35;;;;;;;-146.82;100.00;71671.09;5040097;28;20029;-80
2023/12/28 10:32:05;;;;;;;6.00;2.95;;;;;;;-146.82;100.00;71671.09;5036715;28;20028;-83
2023/12/28 10:34:30;;;;;;;5.00;2.70;;;;;;;-146.82;100.00;71671.09;5034978;28;20052;-81
2023/12/28 10:36:56;;;;;;;6.07;3.03;;;;;;;-146.82;100.00;71671.09;5032602;28;20025;-80
2023/12/28 10:39:23;;;;;;;3.30;2.67;;;;;;;-146.82;100.00;71671.09;5032939;28;20036;-81
2023/12/28 10:41:49;;;;;;;3.75;2.28;;;;;;;-146.82;100.00;71671.09;5032991;28;20112;-82
2023/12/28 10:44:20;;;;;;;5.82;2.80;;;;;;;-146.82;100.00;71671.09;5033248;28;20060;-81
2023/12/28 10:46:46;;;;;;;6.20;3.38;;;;;;;-146.82;100.00;71671.09;5016450;28;20027;-80
2023/12/28 10:49:12;;;;;;;7.50;3.33;;;;;;;-146.82;100.00;71671.09;5033015;28;20041;-80
2023/12/28 10:51:41;;;;;;;6.93;3.03;;;;;;;-146.82;100.00;71671.09;5033044;28;20060;-80
2023/12/28 10:54:17;;;;;;;6.55;3.65;;;;;;;-146.82;100.00;71671.09;5016621;28;20026;-81
2023/12/28 10:56:47;;;;;;;3.45;2.60;;;;;;;-146.82;100.00;71671.09;5034509;28;20040;-82